sensor_id;sensor_type;location;lat;lon;timestamp;P1;durP1;ratioP1;P2;durP2;ratioP2
51200;SDS011;55101;52.138;5.216;2022-07-23T00:00:12;673.6;;;626.31;;
51200;SDS011;55101;52.138;5.216;2022-07-23T00:01:59;662.9;;;617.0;;
51200;SDS011;55101;52.138;5.216;2022-07-23T00:03:45;644.0;;;600.0;;
51200;SDS011;55101;52.138;5.216;2022-07-23T00:05:31;657.5;;;611.5;;
51200;SDS011;55101;52.138;5.216;2022-07-23T00:09:04;637.81;;;594.4;;
51200;SDS011;55101;52.138;5.216;2022-07-23T00:10:50;671.4;;;624.4;;
51200;SDS011;55101;52.138;5.216;2022-07-23T00:12:37;679.8;;;631.9;;
51200;SDS011;55101;52.138;5.216;2022-07-23T00:14:25;667.4;;;620.81;;
51200;SDS011;55101;52.138;5.216;2022-07-23T00:16:11;668.3;;;621.4;;
51200;SDS011;55101;52.138;5.216;2022-07-23T00:19:43;634.6;;;591.4;;
51200;SDS011;55101;52.138;5.216;2022-07-23T00:21:31;650.81;;;606.31;;
51200;SDS011;55101;52.138;5.216;2022-07-23T00:23:17;677.6;;;630.0;;
51200;SDS011;55101;52.138;5.216;2022-07-23T00:25:03;652.0;;;607.21;;
51200;SDS011;55101;52.138;5.216;2022-07-23T00:26:50;681.7;;;634.0;;
51200;SDS011;55101;52.138;5.216;2022-07-23T00:28:36;638.4;;;594.71;;
51200;SDS011;55101;52.138;5.216;2022-07-23T00:32:09;642.81;;;599.6;;
51200;SDS011;55101;52.138;5.216;2022-07-23T00:33:56;679.2;;;631.71;;
51200;SDS011;55101;52.138;5.216;2022-07-23T00:35:43;691.9;;;644.5;;
51200;SDS011;55101;52.138;5.216;2022-07-23T00:37:30;667.5;;;621.71;;
51200;SDS011;55101;52.138;5.216;2022-07-23T00:39:17;645.0;;;601.4;;
51200;SDS011;55101;52.138;5.216;2022-07-23T00:41:04;682.1;;;635.0;;
51200;SDS011;55101;52.138;5.216;2022-07-23T00:44:37;649.6;;;605.31;;
51200;SDS011;55101;52.138;5.216;2022-07-23T00:46:25;673.2;;;626.6;;
51200;SDS011;55101;52.138;5.216;2022-07-23T00:48:11;666.7;;;620.6;;
51200;SDS011;55101;52.138;5.216;2022-07-23T00:49:57;689.2;;;640.21;;
51200;SDS011;55101;52.138;5.216;2022-07-23T00:51:45;650.1;;;605.81;;
51200;SDS011;55101;52.138;5.216;2022-07-23T00:55:18;658.2;;;613.31;;
51200;SDS011;55101;52.138;5.216;2022-07-23T00:57:04;637.5;;;594.5;;
51200;SDS011;55101;52.138;5.216;2022-07-23T00:58:51;687.0;;;638.5;;
51200;SDS011;55101;52.138;5.216;2022-07-23T01:00:37;693.0;;;641.9;;
51200;SDS011;55101;52.138;5.216;2022-07-23T01:02:23;719.0;;;665.5;;
51200;SDS011;55101;52.138;5.216;2022-07-23T01:04:10;705.3;;;653.4;;
51200;SDS011;55101;52.138;5.216;2022-07-23T01:07:45;706.9;;;655.1;;
51200;SDS011;55101;52.138;5.216;2022-07-23T01:09:31;701.2;;;649.4;;
51200;SDS011;55101;52.138;5.216;2022-07-23T01:11:19;832.5;;;767.2;;
51200;SDS011;55101;52.138;5.216;2022-07-23T01:13:06;815.5;;;753.0;;
51200;SDS011;55101;52.138;5.216;2022-07-23T01:14:55;753.3;;;697.6;;
51200;SDS011;55101;52.138;5.216;2022-07-23T01:16:44;761.8;;;704.6;;
51200;SDS011;55101;52.138;5.216;2022-07-23T01:20:20;750.9;;;694.8;;
51200;SDS011;55101;52.138;5.216;2022-07-23T01:22:07;767.7;;;709.6;;
51200;SDS011;55101;52.138;5.216;2022-07-23T01:23:54;755.7;;;699.0;;
51200;SDS011;55101;52.138;5.216;2022-07-23T01:25:47;746.9;;;690.9;;
51200;SDS011;55101;52.138;5.216;2022-07-23T01:27:33;740.9;;;685.2;;
51200;SDS011;55101;52.138;5.216;2022-07-23T01:29:21;746.6;;;690.6;;
51200;SDS011;55101;52.138;5.216;2022-07-23T01:32:54;762.7;;;704.4;;
51200;SDS011;55101;52.138;5.216;2022-07-23T01:34:40;750.2;;;693.9;;
51200;SDS011;55101;52.138;5.216;2022-07-23T01:36:27;756.1;;;699.2;;
51200;SDS011;55101;52.138;5.216;2022-07-23T01:38:14;760.4;;;703.1;;
51200;SDS011;55101;52.138;5.216;2022-07-23T01:40:00;782.1;;;723.0;;
51200;SDS011;55101;52.138;5.216;2022-07-23T01:41:49;753.8;;;697.0;;
51200;SDS011;55101;52.138;5.216;2022-07-23T01:45:21;776.8;;;718.4;;
51200;SDS011;55101;52.138;5.216;2022-07-23T01:47:08;698.6;;;648.21;;
51200;SDS011;55101;52.138;5.216;2022-07-23T01:48:54;709.6;;;658.2;;
51200;SDS011;55101;52.138;5.216;2022-07-23T01:50:40;700.7;;;650.1;;
51200;SDS011;55101;52.138;5.216;2022-07-23T01:52:27;707.9;;;656.5;;
51200;SDS011;55101;52.138;5.216;2022-07-23T01:55:59;744.6;;;689.7;;
51200;SDS011;55101;52.138;5.216;2022-07-23T01:57:46;716.4;;;665.1;;
51200;SDS011;55101;52.138;5.216;2022-07-23T01:59:34;716.4;;;665.1;;
51200;SDS011;55101;52.138;5.216;2022-07-23T02:01:20;692.1;;;642.31;;
51200;SDS011;55101;52.138;5.216;2022-07-23T02:03:08;703.6;;;652.4;;
51200;SDS011;55101;52.138;5.216;2022-07-23T02:04:54;720.4;;;667.0;;
51200;SDS011;55101;52.138;5.216;2022-07-23T02:08:26;724.7;;;671.6;;
51200;SDS011;55101;52.138;5.216;2022-07-23T02:10:12;722.4;;;669.0;;
51200;SDS011;55101;52.138;5.216;2022-07-23T02:11:59;720.4;;;668.0;;
51200;SDS011;55101;52.138;5.216;2022-07-23T02:13:45;723.3;;;670.3;;
51200;SDS011;55101;52.138;5.216;2022-07-23T02:15:31;704.4;;;653.31;;
51200;SDS011;55101;52.138;5.216;2022-07-23T02:17:18;707.1;;;656.0;;
51200;SDS011;55101;52.138;5.216;2022-07-23T02:20:50;736.9;;;682.6;;
51200;SDS011;55101;52.138;5.216;2022-07-23T02:22:38;713.2;;;660.8;;
51200;SDS011;55101;52.138;5.216;2022-07-23T02:24:25;690.8;;;640.9;;
51200;SDS011;55101;52.138;5.216;2022-07-23T02:26:11;711.6;;;659.8;;
51200;SDS011;55101;52.138;5.216;2022-07-23T02:27:57;697.1;;;646.5;;
51200;SDS011;55101;52.138;5.216;2022-07-23T02:31:30;705.8;;;654.6;;
51200;SDS011;55101;52.138;5.216;2022-07-23T02:33:17;693.9;;;644.81;;
51200;SDS011;55101;52.138;5.216;2022-07-23T02:35:04;1047.8;;;949.7;;
51200;SDS011;55101;52.138;5.216;2022-07-23T02:36:52;1040.41;;;943.9;;
51200;SDS011;55101;52.138;5.216;2022-07-23T02:38:38;1035.7;;;939.4;;
51200;SDS011;55101;52.138;5.216;2022-07-23T02:40:25;1030.7;;;936.4;;
51200;SDS011;55101;52.138;5.216;2022-07-23T02:43:58;1024.3;;;931.1;;
51200;SDS011;55101;52.138;5.216;2022-07-23T02:45:44;1031.7;;;937.6;;
51200;SDS011;55101;52.138;5.216;2022-07-23T02:47:31;1054.6;;;956.8;;
51200;SDS011;55101;52.138;5.216;2022-07-23T02:49:18;1041.91;;;944.7;;
51200;SDS011;55101;52.138;5.216;2022-07-23T02:51:05;1034.91;;;940.5;;
51200;SDS011;55101;52.138;5.216;2022-07-23T02:52:51;1010.8;;;920.7;;
51200;SDS011;55101;52.138;5.216;2022-07-23T02:56:25;1044.3;;;945.7;;
51200;SDS011;55101;52.138;5.216;2022-07-23T02:58:11;1063.91;;;960.0;;
51200;SDS011;55101;52.138;5.216;2022-07-23T02:59:57;698.5;;;647.81;;
51200;SDS011;55101;52.138;5.216;2022-07-23T03:01:43;706.9;;;654.4;;
51200;SDS011;55101;52.138;5.216;2022-07-23T03:03:30;687.8;;;638.31;;
51200;SDS011;55101;52.138;5.216;2022-07-23T03:07:03;669.3;;;620.81;;
51200;SDS011;55101;52.138;5.216;2022-07-23T03:08:49;707.8;;;655.31;;
51200;SDS011;55101;52.138;5.216;2022-07-23T03:10:35;704.2;;;652.1;;
51200;SDS011;55101;52.138;5.216;2022-07-23T03:12:21;708.7;;;656.4;;
51200;SDS011;55101;52.138;5.216;2022-07-23T03:14:07;703.4;;;651.81;;
51200;SDS011;55101;52.138;5.216;2022-07-23T03:15:54;694.7;;;644.1;;
51200;SDS011;55101;52.138;5.216;2022-07-23T03:19:26;705.1;;;654.21;;
51200;SDS011;55101;52.138;5.216;2022-07-23T03:21:12;684.8;;;635.0;;
51200;SDS011;55101;52.138;5.216;2022-07-23T03:22:59;671.3;;;621.81;;
51200;SDS011;55101;52.138;5.216;2022-07-23T03:25:01;704.6;;;652.4;;
51200;SDS011;55101;52.138;5.216;2022-07-23T03:26:48;680.5;;;630.1;;
51200;SDS011;55101;52.138;5.216;2022-07-23T03:28:34;685.5;;;632.9;;
51200;SDS011;55101;52.138;5.216;2022-07-23T03:32:07;690.6;;;638.1;;
51200;SDS011;55101;52.138;5.216;2022-07-23T03:33:54;690.5;;;640.0;;
51200;SDS011;55101;52.138;5.216;2022-07-23T03:39:53;647.21;;;596.6;;
51200;SDS011;55101;52.138;5.216;2022-07-23T03:41:39;668.3;;;620.5;;
51200;SDS011;55101;52.138;5.216;2022-07-23T03:43:25;642.21;;;597.1;;
51200;SDS011;55101;52.138;5.216;2022-07-23T03:45:11;631.81;;;589.4;;
51200;SDS011;55101;52.138;5.216;2022-07-23T03:48:46;631.4;;;588.71;;
51200;SDS011;55101;52.138;5.216;2022-07-23T03:50:32;625.1;;;582.71;;
51200;SDS011;55101;52.138;5.216;2022-07-23T03:52:19;623.5;;;577.81;;
51200;SDS011;55101;52.138;5.216;2022-07-23T03:54:06;637.6;;;594.71;;
51200;SDS011;55101;52.138;5.216;2022-07-23T03:55:52;635.31;;;592.5;;
51200;SDS011;55101;52.138;5.216;2022-07-23T03:59:26;594.5;;;552.9;;
51200;SDS011;55101;52.138;5.216;2022-07-23T04:01:12;652.31;;;605.21;;
51200;SDS011;55101;52.138;5.216;2022-07-23T04:02:59;630.31;;;583.71;;
51200;SDS011;55101;52.138;5.216;2022-07-23T04:04:46;589.4;;;551.81;;
51200;SDS011;55101;52.138;5.216;2022-07-23T04:06:33;635.5;;;592.1;;
51200;SDS011;55101;52.138;5.216;2022-07-23T04:08:21;670.7;;;622.5;;
51200;SDS011;55101;52.138;5.216;2022-07-23T04:11:55;636.71;;;592.0;;
51200;SDS011;55101;52.138;5.216;2022-07-23T04:13:41;649.71;;;603.71;;
51200;SDS011;55101;52.138;5.216;2022-07-23T04:15:27;664.1;;;617.4;;
51200;SDS011;55101;52.138;5.216;2022-07-23T04:17:14;593.1;;;553.6;;
51200;SDS011;55101;52.138;5.216;2022-07-23T04:19:00;601.31;;;562.0;;
51200;SDS011;55101;52.138;5.216;2022-07-23T04:20:48;573.0;;;535.8;;
51200;SDS011;55101;52.138;5.216;2022-07-23T04:24:20;598.81;;;560.21;;
51200;SDS011;55101;52.138;5.216;2022-07-23T04:26:06;595.21;;;558.0;;
51200;SDS011;55101;52.138;5.216;2022-07-23T04:27:53;610.4;;;571.0;;
51200;SDS011;55101;52.138;5.216;2022-07-23T04:29:39;553.31;;;520.0;;
51200;SDS011;55101;52.138;5.216;2022-07-23T04:31:25;592.1;;;555.6;;
51200;SDS011;55101;52.138;5.216;2022-07-23T04:34:58;578.6;;;543.0;;
51200;SDS011;55101;52.138;5.216;2022-07-23T04:36:45;545.5;;;511.7;;
51200;SDS011;55101;52.138;5.216;2022-07-23T04:38:32;581.1;;;543.5;;
51200;SDS011;55101;52.138;5.216;2022-07-23T04:40:19;557.31;;;521.3;;
51200;SDS011;55101;52.138;5.216;2022-07-23T04:42:06;616.4;;;575.31;;
51200;SDS011;55101;52.138;5.216;2022-07-23T04:43:52;605.1;;;563.21;;
51200;SDS011;55101;52.138;5.216;2022-07-23T04:47:26;638.21;;;592.5;;
51200;SDS011;55101;52.138;5.216;2022-07-23T04:49:12;647.81;;;601.5;;
51200;SDS011;55101;52.138;5.216;2022-07-23T04:50:58;681.1;;;632.1;;
51200;SDS011;55101;52.138;5.216;2022-07-23T04:52:45;673.7;;;625.1;;
51200;SDS011;55101;52.138;5.216;2022-07-23T04:54:31;658.5;;;611.1;;
51200;SDS011;55101;52.138;5.216;2022-07-23T04:56:18;680.4;;;630.1;;
51200;SDS011;55101;52.138;5.216;2022-07-23T04:59:50;664.4;;;616.21;;
51200;SDS011;55101;52.138;5.216;2022-07-23T05:01:37;682.7;;;632.1;;
51200;SDS011;55101;52.138;5.216;2022-07-23T05:03:23;637.31;;;591.0;;
51200;SDS011;55101;52.138;5.216;2022-07-23T05:05:09;624.81;;;579.6;;
51200;SDS011;55101;52.138;5.216;2022-07-23T05:06:56;627.9;;;582.71;;
51200;SDS011;55101;52.138;5.216;2022-07-23T05:10:29;609.21;;;567.21;;
51200;SDS011;55101;52.138;5.216;2022-07-23T05:12:16;604.4;;;564.21;;
51200;SDS011;55101;52.138;5.216;2022-07-23T05:14:04;605.81;;;564.6;;
51200;SDS011;55101;52.138;5.216;2022-07-23T05:15:50;614.21;;;571.31;;
51200;SDS011;55101;52.138;5.216;2022-07-23T05:17:37;579.81;;;542.5;;
51200;SDS011;55101;52.138;5.216;2022-07-23T05:19:23;944.4;;;863.5;;
51200;SDS011;55101;52.138;5.216;2022-07-23T05:22:56;1005.6;;;911.6;;
51200;SDS011;55101;52.138;5.216;2022-07-23T05:24:43;982.6;;;892.9;;
51200;SDS011;55101;52.138;5.216;2022-07-23T05:26:29;985.9;;;894.8;;
51200;SDS011;55101;52.138;5.216;2022-07-23T05:28:15;951.0;;;866.6;;
51200;SDS011;55101;52.138;5.216;2022-07-23T05:30:01;970.8;;;880.9;;
51200;SDS011;55101;52.138;5.216;2022-07-23T05:31:49;1014.1;;;918.8;;
51200;SDS011;55101;52.138;5.216;2022-07-23T05:35:21;999.2;;;906.7;;
51200;SDS011;55101;52.138;5.216;2022-07-23T05:37:07;1008.7;;;914.0;;
51200;SDS011;55101;52.138;5.216;2022-07-23T05:38:53;983.6;;;893.1;;
51200;SDS011;55101;52.138;5.216;2022-07-23T05:40:40;990.4;;;897.5;;
51200;SDS011;55101;52.138;5.216;2022-07-23T05:42:26;979.0;;;888.9;;
51200;SDS011;55101;52.138;5.216;2022-07-23T05:45:58;985.3;;;894.6;;
51200;SDS011;55101;52.138;5.216;2022-07-23T05:47:46;975.8;;;887.6;;
51200;SDS011;55101;52.138;5.216;2022-07-23T05:49:34;934.6;;;852.4;;
51200;SDS011;55101;52.138;5.216;2022-07-23T05:51:23;963.6;;;874.7;;
51200;SDS011;55101;52.138;5.216;2022-07-23T05:53:12;942.3;;;854.5;;
51200;SDS011;55101;52.138;5.216;2022-07-23T05:54:59;966.7;;;875.0;;
51200;SDS011;55101;52.138;5.216;2022-07-23T05:58:32;999.4;;;899.7;;
51200;SDS011;55101;52.138;5.216;2022-07-23T06:00:18;981.0;;;885.0;;
51200;SDS011;55101;52.138;5.216;2022-07-23T06:02:05;925.2;;;839.7;;
51200;SDS011;55101;52.138;5.216;2022-07-23T06:03:51;926.3;;;841.8;;
51200;SDS011;55101;52.138;5.216;2022-07-23T06:05:37;920.5;;;835.0;;
51200;SDS011;55101;52.138;5.216;2022-07-23T06:07:23;1047.8;;;943.2;;
51200;SDS011;55101;52.138;5.216;2022-07-23T06:10:57;1080.8;;;968.1;;
51200;SDS011;55101;52.138;5.216;2022-07-23T06:12:45;1011.4;;;917.4;;
51200;SDS011;55101;52.138;5.216;2022-07-23T06:14:32;1121.41;;;981.5;;
51200;SDS011;55101;52.138;5.216;2022-07-23T06:16:22;1093.8;;;973.3;;
51200;SDS011;55101;52.138;5.216;2022-07-23T06:18:08;1008.2;;;911.0;;
51200;SDS011;55101;52.138;5.216;2022-07-23T06:19:54;1053.1;;;949.3;;
51200;SDS011;55101;52.138;5.216;2022-07-23T06:23:28;1044.7;;;941.0;;
51200;SDS011;55101;52.138;5.216;2022-07-23T06:25:16;1110.0;;;994.3;;
51200;SDS011;55101;52.138;5.216;2022-07-23T06:27:02;1051.1;;;945.8;;
51200;SDS011;55101;52.138;5.216;2022-07-23T06:28:49;1091.7;;;977.3;;
51200;SDS011;55101;52.138;5.216;2022-07-23T06:30:35;1090.0;;;975.5;;
51200;SDS011;55101;52.138;5.216;2022-07-23T06:34:08;1058.2;;;953.7;;
51200;SDS011;55101;52.138;5.216;2022-07-23T06:35:54;1066.3;;;958.2;;
51200;SDS011;55101;52.138;5.216;2022-07-23T06:37:40;1062.41;;;956.1;;
51200;SDS011;55101;52.138;5.216;2022-07-23T06:39:26;1318.8;;;999.9;;
51200;SDS011;55101;52.138;5.216;2022-07-23T06:41:12;1047.3;;;944.8;;
51200;SDS011;55101;52.138;5.216;2022-07-23T06:42:59;1052.1;;;946.9;;
51200;SDS011;55101;52.138;5.216;2022-07-23T06:46:31;1038.41;;;936.0;;
51200;SDS011;55101;52.138;5.216;2022-07-23T06:48:18;1008.6;;;915.9;;
51200;SDS011;55101;52.138;5.216;2022-07-23T06:50:05;1025.8;;;928.0;;
51200;SDS011;55101;52.138;5.216;2022-07-23T06:51:52;1045.2;;;942.7;;
51200;SDS011;55101;52.138;5.216;2022-07-23T06:53:38;1064.8;;;958.9;;
51200;SDS011;55101;52.138;5.216;2022-07-23T06:57:10;1055.0;;;950.6;;
51200;SDS011;55101;52.138;5.216;2022-07-23T06:58:57;1061.2;;;956.5;;
51200;SDS011;55101;52.138;5.216;2022-07-23T07:00:43;1052.2;;;949.9;;
51200;SDS011;55101;52.138;5.216;2022-07-23T07:02:29;1070.2;;;962.0;;
51200;SDS011;55101;52.138;5.216;2022-07-23T07:04:15;1047.8;;;946.1;;
51200;SDS011;55101;52.138;5.216;2022-07-23T07:06:02;1054.1;;;952.1;;
51200;SDS011;55101;52.138;5.216;2022-07-23T07:09:35;1071.8;;;965.5;;
51200;SDS011;55101;52.138;5.216;2022-07-23T07:11:21;1063.6;;;959.0;;
51200;SDS011;55101;52.138;5.216;2022-07-23T07:13:07;1053.41;;;951.8;;
51200;SDS011;55101;52.138;5.216;2022-07-23T07:14:53;1029.3;;;933.9;;
51200;SDS011;55101;52.138;5.216;2022-07-23T07:16:40;1025.1;;;930.3;;
51200;SDS011;55101;52.138;5.216;2022-07-23T07:20:14;1045.7;;;946.6;;
51200;SDS011;55101;52.138;5.216;2022-07-23T07:22:01;1004.3;;;913.1;;
51200;SDS011;55101;52.138;5.216;2022-07-23T07:23:48;1021.0;;;926.7;;
51200;SDS011;55101;52.138;5.216;2022-07-23T07:25:34;1009.2;;;917.8;;
51200;SDS011;55101;52.138;5.216;2022-07-23T07:27:21;1027.91;;;931.8;;
51200;SDS011;55101;52.138;5.216;2022-07-23T07:29:08;1025.41;;;930.4;;
51200;SDS011;55101;52.138;5.216;2022-07-23T07:32:40;1047.0;;;946.0;;
51200;SDS011;55101;52.138;5.216;2022-07-23T07:34:27;1037.91;;;940.1;;
51200;SDS011;55101;52.138;5.216;2022-07-23T07:36:14;1024.5;;;929.8;;
51200;SDS011;55101;52.138;5.216;2022-07-23T07:38:01;1033.2;;;935.7;;
51200;SDS011;55101;52.138;5.216;2022-07-23T07:39:47;1017.6;;;922.6;;
51200;SDS011;55101;52.138;5.216;2022-07-23T07:41:33;1018.7;;;925.5;;
51200;SDS011;55101;52.138;5.216;2022-07-23T07:45:07;1003.9;;;912.9;;
51200;SDS011;55101;52.138;5.216;2022-07-23T07:46:54;1039.0;;;940.7;;
51200;SDS011;55101;52.138;5.216;2022-07-23T07:48:40;987.7;;;900.0;;
51200;SDS011;55101;52.138;5.216;2022-07-23T07:50:27;992.3;;;903.9;;
51200;SDS011;55101;52.138;5.216;2022-07-23T07:52:13;981.1;;;894.4;;
51200;SDS011;55101;52.138;5.216;2022-07-23T07:55:47;963.0;;;879.3;;
51200;SDS011;55101;52.138;5.216;2022-07-23T07:57:33;1000.2;;;910.6;;
51200;SDS011;55101;52.138;5.216;2022-07-23T07:59:20;963.3;;;880.1;;
51200;SDS011;55101;52.138;5.216;2022-07-23T08:01:07;1022.5;;;929.8;;
51200;SDS011;55101;52.138;5.216;2022-07-23T08:02:53;951.0;;;869.2;;
51200;SDS011;55101;52.138;5.216;2022-07-23T08:04:40;945.9;;;865.6;;
51200;SDS011;55101;52.138;5.216;2022-07-23T08:08:14;928.2;;;850.1;;
51200;SDS011;55101;52.138;5.216;2022-07-23T08:10:01;898.3;;;824.1;;
51200;SDS011;55101;52.138;5.216;2022-07-23T08:11:48;899.8;;;825.2;;
51200;SDS011;55101;52.138;5.216;2022-07-23T08:13:37;903.6;;;827.6;;
51200;SDS011;55101;52.138;5.216;2022-07-23T08:15:24;871.3;;;800.7;;
51200;SDS011;55101;52.138;5.216;2022-07-23T08:17:11;889.8;;;815.3;;
51200;SDS011;55101;52.138;5.216;2022-07-23T08:20:44;885.3;;;812.6;;
51200;SDS011;55101;52.138;5.216;2022-07-23T08:22:46;894.1;;;819.7;;
51200;SDS011;55101;52.138;5.216;2022-07-23T08:24:37;935.3;;;855.6;;
51200;SDS011;55101;52.138;5.216;2022-07-23T08:26:23;932.1;;;852.3;;
51200;SDS011;55101;52.138;5.216;2022-07-23T08:28:10;902.0;;;825.6;;
51200;SDS011;55101;52.138;5.216;2022-07-23T08:29:59;881.7;;;809.0;;
51200;SDS011;55101;52.138;5.216;2022-07-23T08:31:45;882.6;;;808.8;;
51200;SDS011;55101;52.138;5.216;2022-07-23T08:35:21;869.3;;;798.1;;
51200;SDS011;55101;52.138;5.216;2022-07-23T08:37:09;895.8;;;820.6;;
51200;SDS011;55101;52.138;5.216;2022-07-23T08:38:55;902.5;;;827.1;;
51200;SDS011;55101;52.138;5.216;2022-07-23T08:40:42;914.8;;;836.3;;
51200;SDS011;55101;52.138;5.216;2022-07-23T08:42:31;868.9;;;797.2;;
51200;SDS011;55101;52.138;5.216;2022-07-23T08:44:19;877.6;;;803.7;;
51200;SDS011;55101;52.138;5.216;2022-07-23T08:47:52;933.7;;;852.1;;
51200;SDS011;55101;52.138;5.216;2022-07-23T08:49:41;933.7;;;852.1;;
51200;SDS011;55101;52.138;5.216;2022-07-23T08:51:28;933.0;;;851.9;;
51200;SDS011;55101;52.138;5.216;2022-07-23T08:53:14;924.9;;;844.4;;
51200;SDS011;55101;52.138;5.216;2022-07-23T08:55:02;886.8;;;812.0;;
51200;SDS011;55101;52.138;5.216;2022-07-23T08:56:50;904.5;;;827.4;;
51200;SDS011;55101;52.138;5.216;2022-07-23T09:00:24;874.4;;;802.6;;
51200;SDS011;55101;52.138;5.216;2022-07-23T09:02:11;888.0;;;812.9;;
51200;SDS011;55101;52.138;5.216;2022-07-23T09:03:58;867.0;;;795.6;;
51200;SDS011;55101;52.138;5.216;2022-07-23T09:05:44;825.1;;;759.6;;
51200;SDS011;55101;52.138;5.216;2022-07-23T09:07:32;877.6;;;806.4;;
51200;SDS011;55101;52.138;5.216;2022-07-23T09:11:09;876.5;;;805.6;;
51200;SDS011;55101;52.138;5.216;2022-07-23T09:12:57;894.6;;;821.1;;
51200;SDS011;55101;52.138;5.216;2022-07-23T09:14:46;874.7;;;804.7;;
51200;SDS011;55101;52.138;5.216;2022-07-23T09:16:33;925.9;;;846.9;;
51200;SDS011;55101;52.138;5.216;2022-07-23T09:18:20;895.2;;;819.8;;
51200;SDS011;55101;52.138;5.216;2022-07-23T09:20:15;740.8;;;684.3;;
51200;SDS011;55101;52.138;5.216;2022-07-23T09:22:16;577.0;;;533.0;;
51200;SDS011;55101;52.138;5.216;2022-07-23T09:24:08;403.7;;;377.5;;
51200;SDS011;55101;52.138;5.216;2022-07-23T09:27:51;367.6;;;344.9;;
51200;SDS011;55101;52.138;5.216;2022-07-23T09:29:40;377.4;;;352.9;;
51200;SDS011;55101;52.138;5.216;2022-07-23T09:31:43;198.6;;;187.3;;
51200;SDS011;55101;52.138;5.216;2022-07-23T09:33:32;178.8;;;168.8;;
51200;SDS011;55101;52.138;5.216;2022-07-23T09:35:19;169.7;;;160.71;;
51200;SDS011;55101;52.138;5.216;2022-07-23T09:37:08;169.7;;;160.71;;
51200;SDS011;55101;52.138;5.216;2022-07-23T09:38:56;249.8;;;234.6;;
51200;SDS011;55101;52.138;5.216;2022-07-23T09:42:30;318.3;;;297.41;;
51200;SDS011;55101;52.138;5.216;2022-07-23T09:44:18;223.5;;;210.8;;
51200;SDS011;55101;52.138;5.216;2022-07-23T09:46:22;168.0;;;158.6;;
51200;SDS011;55101;52.138;5.216;2022-07-23T09:48:12;190.1;;;179.6;;
51200;SDS011;55101;52.138;5.216;2022-07-23T09:50:01;190.1;;;179.6;;
51200;SDS011;55101;52.138;5.216;2022-07-23T09:51:51;308.11;;;288.0;;
51200;SDS011;55101;52.138;5.216;2022-07-23T09:53:40;305.5;;;286.91;;
51200;SDS011;55101;52.138;5.216;2022-07-23T09:55:30;194.2;;;183.4;;
51200;SDS011;55101;52.138;5.216;2022-07-23T09:59:04;318.2;;;299.0;;
51200;SDS011;55101;52.138;5.216;2022-07-23T10:00:52;203.6;;;192.0;;
51200;SDS011;55101;52.138;5.216;2022-07-23T10:02:39;226.4;;;212.1;;
51200;SDS011;55101;52.138;5.216;2022-07-23T10:04:27;167.9;;;158.9;;
51200;SDS011;55101;52.138;5.216;2022-07-23T10:06:15;268.8;;;251.8;;
51200;SDS011;55101;52.138;5.216;2022-07-23T10:08:02;220.4;;;207.8;;
51200;SDS011;55101;52.138;5.216;2022-07-23T10:11:38;162.71;;;153.6;;
51200;SDS011;55101;52.138;5.216;2022-07-23T10:13:56;168.5;;;159.21;;
51200;SDS011;55101;52.138;5.216;2022-07-23T10:15:45;214.8;;;201.5;;
51200;SDS011;55101;52.138;5.216;2022-07-23T10:17:33;140.21;;;132.81;;
51200;SDS011;55101;52.138;5.216;2022-07-23T10:19:20;195.4;;;184.8;;
51200;SDS011;55101;52.138;5.216;2022-07-23T10:21:08;171.3;;;161.71;;
51200;SDS011;55101;52.138;5.216;2022-07-23T10:22:57;105.5;;;100.1;;
51200;SDS011;55101;52.138;5.216;2022-07-23T10:24:53;209.3;;;196.0;;
51200;SDS011;55101;52.138;5.216;2022-07-23T10:26:52;145.1;;;137.21;;
51200;SDS011;55101;52.138;5.216;2022-07-23T10:29:01;145.1;;;137.21;;
51200;SDS011;55101;52.138;5.216;2022-07-23T10:31:00;158.4;;;149.4;;
51200;SDS011;55101;52.138;5.216;2022-07-23T10:35:04;312.11;;;292.41;;
51200;SDS011;55101;52.138;5.216;2022-07-23T10:37:06;176.6;;;167.1;;
51200;SDS011;55101;52.138;5.216;2022-07-23T10:39:04;170.5;;;161.21;;
51200;SDS011;55101;52.138;5.216;2022-07-23T10:40:57;115.1;;;109.2;;
51200;SDS011;55101;52.138;5.216;2022-07-23T10:42:47;138.4;;;131.0;;
51200;SDS011;55101;52.138;5.216;2022-07-23T10:44:38;308.2;;;288.3;;
51200;SDS011;55101;52.138;5.216;2022-07-23T10:46:29;205.4;;;193.4;;
51200;SDS011;55101;52.138;5.216;2022-07-23T10:48:18;207.6;;;196.3;;
51200;SDS011;55101;52.138;5.216;2022-07-23T10:50:17;134.5;;;127.4;;
51200;SDS011;55101;52.138;5.216;2022-07-23T10:52:19;163.0;;;153.9;;
51200;SDS011;55101;52.138;5.216;2022-07-23T10:54:19;119.5;;;113.4;;
51200;SDS011;55101;52.138;5.216;2022-07-23T10:56:07;131.0;;;124.1;;
51200;SDS011;55101;52.138;5.216;2022-07-23T11:00:15;170.3;;;160.81;;
51200;SDS011;55101;52.138;5.216;2022-07-23T11:02:32;149.21;;;141.1;;
51200;SDS011;55101;52.138;5.216;2022-07-23T11:07:07;120.2;;;113.9;;
51200;SDS011;55101;52.138;5.216;2022-07-23T11:09:24;135.1;;;127.9;;
51200;SDS011;55101;52.138;5.216;2022-07-23T11:11:11;177.7;;;167.8;;
51200;SDS011;55101;52.138;5.216;2022-07-23T11:13:10;157.0;;;148.6;;
51200;SDS011;55101;52.138;5.216;2022-07-23T11:15:15;158.9;;;150.31;;
51200;SDS011;55101;52.138;5.216;2022-07-23T11:17:02;200.7;;;189.7;;
51200;SDS011;55101;52.138;5.216;2022-07-23T11:19:06;200.4;;;188.9;;
51200;SDS011;55101;52.138;5.216;2022-07-23T11:22:46;148.9;;;141.1;;
51200;SDS011;55101;52.138;5.216;2022-07-23T11:24:35;172.3;;;163.1;;
51200;SDS011;55101;52.138;5.216;2022-07-23T11:26:45;197.8;;;186.9;;
51200;SDS011;55101;52.138;5.216;2022-07-23T11:28:54;165.7;;;156.4;;
51200;SDS011;55101;52.138;5.216;2022-07-23T11:30:41;204.7;;;193.0;;
51200;SDS011;55101;52.138;5.216;2022-07-23T11:32:31;134.1;;;127.5;;
51200;SDS011;55101;52.138;5.216;2022-07-23T11:34:24;174.8;;;165.4;;
51200;SDS011;55101;52.138;5.216;2022-07-23T11:36:15;135.2;;;128.2;;
51200;SDS011;55101;52.138;5.216;2022-07-23T11:38:03;191.5;;;181.2;;
51200;SDS011;55101;52.138;5.216;2022-07-23T11:41:43;148.1;;;140.6;;
51200;SDS011;55101;52.138;5.216;2022-07-23T11:43:30;149.9;;;142.31;;
51200;SDS011;55101;52.138;5.216;2022-07-23T11:45:16;130.1;;;123.7;;
51200;SDS011;55101;52.138;5.216;2022-07-23T11:47:03;141.9;;;134.4;;
51200;SDS011;55101;52.138;5.216;2022-07-23T11:49:00;144.1;;;137.0;;
51200;SDS011;55101;52.138;5.216;2022-07-23T11:50:48;175.1;;;166.1;;
51200;SDS011;55101;52.138;5.216;2022-07-23T11:52:35;176.6;;;167.7;;
51200;SDS011;55101;52.138;5.216;2022-07-23T11:56:09;140.81;;;133.81;;
51200;SDS011;55101;52.138;5.216;2022-07-23T11:57:57;208.1;;;196.9;;
51200;SDS011;55101;52.138;5.216;2022-07-23T11:59:46;173.7;;;164.7;;
51200;SDS011;55101;52.138;5.216;2022-07-23T12:01:37;315.61;;;297.3;;
51200;SDS011;55101;52.138;5.216;2022-07-23T12:14:09;240.9;;;223.6;;
51200;SDS011;55101;52.138;5.216;2022-07-23T12:15:56;90.3;;;85.4;;
51200;SDS011;55101;52.138;5.216;2022-07-23T12:17:43;115.4;;;108.9;;
51200;SDS011;55101;52.138;5.216;2022-07-23T12:19:32;50.8;;;48.4;;
51200;SDS011;55101;52.138;5.216;2022-07-23T12:21:18;48.6;;;46.4;;
51200;SDS011;55101;52.138;5.216;2022-07-23T12:24:55;33.9;;;32.5;;
51200;SDS011;55101;52.138;5.216;2022-07-23T12:27:07;64.3;;;61.3;;